sensor_id;sensor_type;location;lat;lon;timestamp;P1;durP1;ratioP1;P2;durP2;ratioP2
14472;SDS011;7322;50.872;4.386;2022-12-18T00:02:21;11.17;;;9.90;;
14472;SDS011;7322;50.872;4.386;2022-12-18T00:04:50;10.23;;;9.13;;
14472;SDS011;7322;50.872;4.386;2022-12-18T00:09:53;10.47;;;9.37;;
14472;SDS011;7322;50.872;4.386;2022-12-18T00:15:38;10.27;;;8.90;;
14472;SDS011;7322;50.872;4.386;2022-12-18T00:20:49;10.40;;;9.40;;
14472;SDS011;7322;50.872;4.386;2022-12-18T00:23:16;11.27;;;9.83;;
14472;SDS011;7322;50.872;4.386;2022-12-18T00:25:49;10.77;;;9.57;;
14472;SDS011;7322;50.872;4.386;2022-12-18T00:28:16;10.10;;;9.07;;
14472;SDS011;7322;50.872;4.386;2022-12-18T00:30:46;9.90;;;8.80;;
14472;SDS011;7322;50.872;4.386;2022-12-18T00:33:16;11.13;;;9.70;;
14472;SDS011;7322;50.872;4.386;2022-12-18T00:35:47;11.33;;;9.83;;
14472;SDS011;7322;50.872;4.386;2022-12-18T00:38:15;10.60;;;9.27;;
14472;SDS011;7322;50.872;4.386;2022-12-18T00:40:44;11.03;;;9.73;;
14472;SDS011;7322;50.872;4.386;2022-12-18T00:43:11;10.00;;;8.97;;
14472;SDS011;7322;50.872;4.386;2022-12-18T00:45:39;10.20;;;9.20;;
14472;SDS011;7322;50.872;4.386;2022-12-18T00:48:09;10.80;;;9.50;;
14472;SDS011;7322;50.872;4.386;2022-12-18T00:50:37;10.47;;;9.27;;
14472;SDS011;7322;50.872;4.386;2022-12-18T00:53:19;9.93;;;8.93;;
14472;SDS011;7322;50.872;4.386;2022-12-18T00:55:54;10.23;;;9.23;;
14472;SDS011;7322;50.872;4.386;2022-12-18T00:58:23;10.03;;;9.03;;
14472;SDS011;7322;50.872;4.386;2022-12-18T01:00:50;10.03;;;8.97;;
14472;SDS011;7322;50.872;4.386;2022-12-18T01:03:18;9.90;;;8.90;;
14472;SDS011;7322;50.872;4.386;2022-12-18T01:05:46;9.77;;;8.77;;
14472;SDS011;7322;50.872;4.386;2022-12-18T01:08:13;10.40;;;9.30;;
14472;SDS011;7322;50.872;4.386;2022-12-18T01:10:49;9.43;;;8.53;;
14472;SDS011;7322;50.872;4.386;2022-12-18T01:13:21;11.43;;;9.00;;
14472;SDS011;7322;50.872;4.386;2022-12-18T01:15:52;9.40;;;8.50;;
14472;SDS011;7322;50.872;4.386;2022-12-18T01:18:22;10.00;;;9.00;;
14472;SDS011;7322;50.872;4.386;2022-12-18T01:20:51;10.47;;;9.47;;
14472;SDS011;7322;50.872;4.386;2022-12-18T01:31:39;9.93;;;8.87;;
14472;SDS011;7322;50.872;4.386;2022-12-18T01:34:09;10.13;;;9.07;;
14472;SDS011;7322;50.872;4.386;2022-12-18T01:36:43;10.63;;;9.53;;
14472;SDS011;7322;50.872;4.386;2022-12-18T01:39:11;10.00;;;8.97;;
14472;SDS011;7322;50.872;4.386;2022-12-18T01:41:41;10.03;;;9.03;;
14472;SDS011;7322;50.872;4.386;2022-12-18T01:47:40;10.40;;;9.37;;
14472;SDS011;7322;50.872;4.386;2022-12-18T01:52:50;9.40;;;8.50;;
14472;SDS011;7322;50.872;4.386;2022-12-18T01:55:22;9.47;;;8.57;;
14472;SDS011;7322;50.872;4.386;2022-12-18T01:57:51;9.40;;;8.17;;
14472;SDS011;7322;50.872;4.386;2022-12-18T02:00:35;11.43;;;9.20;;
14472;SDS011;7322;50.872;4.386;2022-12-18T02:03:09;9.73;;;8.63;;
14472;SDS011;7322;50.872;4.386;2022-12-18T02:05:46;9.20;;;8.30;;
14472;SDS011;7322;50.872;4.386;2022-12-18T02:08:24;9.40;;;8.13;;
14472;SDS011;7322;50.872;4.386;2022-12-18T02:11:17;9.33;;;8.43;;
14472;SDS011;7322;50.872;4.386;2022-12-18T02:13:57;10.13;;;8.90;;
14472;SDS011;7322;50.872;4.386;2022-12-18T02:16:45;9.63;;;8.60;;
14472;SDS011;7322;50.872;4.386;2022-12-18T02:28:40;9.00;;;7.97;;
14472;SDS011;7322;50.872;4.386;2022-12-18T02:31:23;9.97;;;8.90;;
14472;SDS011;7322;50.872;4.386;2022-12-18T02:34:03;8.77;;;7.77;;
14472;SDS011;7322;50.872;4.386;2022-12-18T02:36:41;10.03;;;8.93;;
14472;SDS011;7322;50.872;4.386;2022-12-18T02:42:12;8.80;;;7.90;;
14472;SDS011;7322;50.872;4.386;2022-12-18T02:47:31;8.93;;;7.83;;
14472;SDS011;7322;50.872;4.386;2022-12-18T02:50:16;10.57;;;8.33;;
14472;SDS011;7322;50.872;4.386;2022-12-18T02:52:56;9.30;;;8.20;;
14472;SDS011;7322;50.872;4.386;2022-12-18T02:55:37;8.83;;;7.80;;
14472;SDS011;7322;50.872;4.386;2022-12-18T03:00:53;9.50;;;8.40;;
14472;SDS011;7322;50.872;4.386;2022-12-18T03:03:36;9.60;;;8.57;;
14472;SDS011;7322;50.872;4.386;2022-12-18T03:06:27;9.23;;;8.23;;
14472;SDS011;7322;50.872;4.386;2022-12-18T03:09:02;9.37;;;8.37;;
14472;SDS011;7322;50.872;4.386;2022-12-18T03:11:38;9.13;;;8.10;;
14472;SDS011;7322;50.872;4.386;2022-12-18T03:14:40;8.47;;;7.67;;
14472;SDS011;7322;50.872;4.386;2022-12-18T03:17:22;9.10;;;7.73;;
14472;SDS011;7322;50.872;4.386;2022-12-18T03:26:07;9.33;;;7.80;;
14472;SDS011;7322;50.872;4.386;2022-12-18T03:28:39;9.23;;;8.23;;
14472;SDS011;7322;50.872;4.386;2022-12-18T03:37:16;9.27;;;8.30;;
14472;SDS011;7322;50.872;4.386;2022-12-18T03:39:46;8.97;;;8.07;;
14472;SDS011;7322;50.872;4.386;2022-12-18T03:47:48;9.10;;;7.57;;
14472;SDS011;7322;50.872;4.386;2022-12-18T03:50:29;8.27;;;7.47;;
14472;SDS011;7322;50.872;4.386;2022-12-18T03:53:24;9.37;;;8.27;;
14472;SDS011;7322;50.872;4.386;2022-12-18T03:55:59;8.40;;;7.40;;
14472;SDS011;7322;50.872;4.386;2022-12-18T04:01:05;8.20;;;7.30;;
14472;SDS011;7322;50.872;4.386;2022-12-18T04:03:44;8.37;;;7.47;;
14472;SDS011;7322;50.872;4.386;2022-12-18T04:06:17;8.80;;;7.63;;
14472;SDS011;7322;50.872;4.386;2022-12-18T04:14:14;8.87;;;7.47;;
14472;SDS011;7322;50.872;4.386;2022-12-18T04:16:46;7.93;;;7.13;;
14472;SDS011;7322;50.872;4.386;2022-12-18T04:19:15;7.90;;;6.87;;
14472;SDS011;7322;50.872;4.386;2022-12-18T04:21:48;8.30;;;7.20;;
14472;SDS011;7322;50.872;4.386;2022-12-18T04:27:12;7.70;;;6.90;;
14472;SDS011;7322;50.872;4.386;2022-12-18T04:29:50;8.00;;;7.20;;
14472;SDS011;7322;50.872;4.386;2022-12-18T04:32:20;7.50;;;6.80;;
14472;SDS011;7322;50.872;4.386;2022-12-18T04:35:04;7.83;;;7.03;;
14472;SDS011;7322;50.872;4.386;2022-12-18T04:40:10;8.43;;;7.27;;
14472;SDS011;7322;50.872;4.386;2022-12-18T04:45:10;7.93;;;6.93;;
14472;SDS011;7322;50.872;4.386;2022-12-18T04:47:44;7.53;;;6.77;;
14472;SDS011;7322;50.872;4.386;2022-12-18T04:52:50;7.77;;;6.80;;
14472;SDS011;7322;50.872;4.386;2022-12-18T04:55:18;8.17;;;6.83;;
14472;SDS011;7322;50.872;4.386;2022-12-18T04:58:01;7.87;;;7.03;;
14472;SDS011;7322;50.872;4.386;2022-12-18T05:00:28;7.33;;;6.63;;
14472;SDS011;7322;50.872;4.386;2022-12-18T05:05:31;7.67;;;6.77;;
14472;SDS011;7322;50.872;4.386;2022-12-18T05:08:04;7.53;;;6.80;;
14472;SDS011;7322;50.872;4.386;2022-12-18T05:10:31;7.00;;;6.30;;
14472;SDS011;7322;50.872;4.386;2022-12-18T05:12:57;7.27;;;6.50;;
14472;SDS011;7322;50.872;4.386;2022-12-18T05:25:55;7.53;;;6.77;;
14472;SDS011;7322;50.872;4.386;2022-12-18T05:28:24;7.50;;;6.40;;
14472;SDS011;7322;50.872;4.386;2022-12-18T05:31:03;6.60;;;5.90;;
14472;SDS011;7322;50.872;4.386;2022-12-18T05:33:32;6.97;;;6.27;;
14472;SDS011;7322;50.872;4.386;2022-12-18T05:36:03;7.93;;;6.67;;
14472;SDS011;7322;50.872;4.386;2022-12-18T05:38:37;6.87;;;6.27;;
14472;SDS011;7322;50.872;4.386;2022-12-18T05:41:12;6.73;;;6.03;;
14472;SDS011;7322;50.872;4.386;2022-12-18T05:43:44;6.93;;;6.23;;
14472;SDS011;7322;50.872;4.386;2022-12-18T05:46:18;6.63;;;6.03;;
14472;SDS011;7322;50.872;4.386;2022-12-18T05:51:26;6.30;;;5.60;;
14472;SDS011;7322;50.872;4.386;2022-12-18T05:56:53;6.60;;;5.93;;
14472;SDS011;7322;50.872;4.386;2022-12-18T05:59:20;6.77;;;6.07;;
14472;SDS011;7322;50.872;4.386;2022-12-18T06:01:58;5.70;;;5.10;;
14472;SDS011;7322;50.872;4.386;2022-12-18T06:04:26;6.13;;;5.53;;
14472;SDS011;7322;50.872;4.386;2022-12-18T06:07:08;6.57;;;5.80;;
14472;SDS011;7322;50.872;4.386;2022-12-18T06:09:36;6.23;;;5.63;;
14472;SDS011;7322;50.872;4.386;2022-12-18T06:12:05;6.23;;;5.53;;
14472;SDS011;7322;50.872;4.386;2022-12-18T06:14:38;7.07;;;5.67;;
14472;SDS011;7322;50.872;4.386;2022-12-18T06:23:03;6.00;;;5.30;;
14472;SDS011;7322;50.872;4.386;2022-12-18T06:25:39;6.50;;;5.80;;
14472;SDS011;7322;50.872;4.386;2022-12-18T06:28:16;6.57;;;5.60;;
14472;SDS011;7322;50.872;4.386;2022-12-18T06:30:53;6.53;;;5.43;;
14472;SDS011;7322;50.872;4.386;2022-12-18T06:36:17;6.03;;;5.43;;
14472;SDS011;7322;50.872;4.386;2022-12-18T06:47:17;6.13;;;5.20;;
14472;SDS011;7322;50.872;4.386;2022-12-18T06:52:43;5.47;;;4.80;;
14472;SDS011;7322;50.872;4.386;2022-12-18T06:55:17;6.60;;;4.87;;
14472;SDS011;7322;50.872;4.386;2022-12-18T06:58:00;5.27;;;4.73;;
14472;SDS011;7322;50.872;4.386;2022-12-18T07:00:38;5.60;;;5.10;;
14472;SDS011;7322;50.872;4.386;2022-12-18T07:03:14;5.53;;;4.97;;
14472;SDS011;7322;50.872;4.386;2022-12-18T07:05:58;5.77;;;5.07;;
14472;SDS011;7322;50.872;4.386;2022-12-18T07:11:16;5.97;;;4.60;;
14472;SDS011;7322;50.872;4.386;2022-12-18T07:13:45;4.67;;;3.80;;
14472;SDS011;7322;50.872;4.386;2022-12-18T07:16:29;4.33;;;3.93;;
14472;SDS011;7322;50.872;4.386;2022-12-18T07:19:02;4.47;;;4.07;;
14472;SDS011;7322;50.872;4.386;2022-12-18T07:21:43;4.80;;;4.30;;
14472;SDS011;7322;50.872;4.386;2022-12-18T07:24:16;4.60;;;4.10;;
14472;SDS011;7322;50.872;4.386;2022-12-18T07:29:15;4.53;;;3.90;;
14472;SDS011;7322;50.872;4.386;2022-12-18T07:31:53;4.13;;;3.73;;
14472;SDS011;7322;50.872;4.386;2022-12-18T07:34:21;4.27;;;3.87;;
14472;SDS011;7322;50.872;4.386;2022-12-18T07:36:50;4.30;;;3.90;;
14472;SDS011;7322;50.872;4.386;2022-12-18T07:39:17;4.73;;;3.57;;
14472;SDS011;7322;50.872;4.386;2022-12-18T07:41:45;4.53;;;3.87;;
14472;SDS011;7322;50.872;4.386;2022-12-18T07:44:34;4.60;;;3.83;;
14472;SDS011;7322;50.872;4.386;2022-12-18T07:47:03;4.50;;;4.00;;
14472;SDS011;7322;50.872;4.386;2022-12-18T07:49:30;4.10;;;3.70;;
14472;SDS011;7322;50.872;4.386;2022-12-18T07:51:57;4.60;;;4.10;;
14472;SDS011;7322;50.872;4.386;2022-12-18T07:54:27;4.00;;;3.60;;
14472;SDS011;7322;50.872;4.386;2022-12-18T07:56:56;4.57;;;4.00;;
14472;SDS011;7322;50.872;4.386;2022-12-18T07:59:25;4.40;;;4.00;;
14472;SDS011;7322;50.872;4.386;2022-12-18T08:01:54;4.87;;;4.13;;
14472;SDS011;7322;50.872;4.386;2022-12-18T08:09:49;4.80;;;3.73;;
14472;SDS011;7322;50.872;4.386;2022-12-18T08:12:18;4.30;;;3.90;;
14472;SDS011;7322;50.872;4.386;2022-12-18T08:17:25;5.00;;;4.00;;
14472;SDS011;7322;50.872;4.386;2022-12-18T08:19:59;4.53;;;3.70;;
14472;SDS011;7322;50.872;4.386;2022-12-18T08:22:27;4.00;;;3.60;;
14472;SDS011;7322;50.872;4.386;2022-12-18T08:24:55;4.17;;;3.63;;
14472;SDS011;7322;50.872;4.386;2022-12-18T08:27:23;4.77;;;3.60;;
14472;SDS011;7322;50.872;4.386;2022-12-18T08:29:55;4.63;;;3.50;;
14472;SDS011;7322;50.872;4.386;2022-12-18T08:32:28;4.20;;;3.40;;
14472;SDS011;7322;50.872;4.386;2022-12-18T08:34:57;3.83;;;3.40;;
14472;SDS011;7322;50.872;4.386;2022-12-18T08:37:27;4.00;;;3.60;;
14472;SDS011;7322;50.872;4.386;2022-12-18T08:42:49;3.63;;;3.30;;
14472;SDS011;7322;50.872;4.386;2022-12-18T08:45:34;4.17;;;3.60;;
14472;SDS011;7322;50.872;4.386;2022-12-18T08:48:05;3.87;;;3.50;;
14472;SDS011;7322;50.872;4.386;2022-12-18T08:50:42;4.50;;;3.40;;
14472;SDS011;7322;50.872;4.386;2022-12-18T08:53:19;4.53;;;3.87;;
14472;SDS011;7322;50.872;4.386;2022-12-18T08:55:59;5.93;;;3.83;;
14472;SDS011;7322;50.872;4.386;2022-12-18T08:58:27;4.30;;;3.27;;
14472;SDS011;7322;50.872;4.386;2022-12-18T09:00:59;4.63;;;3.60;;
14472;SDS011;7322;50.872;4.386;2022-12-18T09:03:30;4.13;;;3.73;;
14472;SDS011;7322;50.872;4.386;2022-12-18T09:05:59;4.10;;;3.70;;
14472;SDS011;7322;50.872;4.386;2022-12-18T09:08:34;5.10;;;4.00;;
14472;SDS011;7322;50.872;4.386;2022-12-18T09:11:02;4.30;;;3.63;;
14472;SDS011;7322;50.872;4.386;2022-12-18T09:13:31;4.40;;;3.80;;
14472;SDS011;7322;50.872;4.386;2022-12-18T09:15:59;4.07;;;3.67;;
14472;SDS011;7322;50.872;4.386;2022-12-18T09:18:39;3.90;;;3.20;;
14472;SDS011;7322;50.872;4.386;2022-12-18T09:21:11;4.00;;;3.23;;
14472;SDS011;7322;50.872;4.386;2022-12-18T09:23:40;4.57;;;3.30;;
14472;SDS011;7322;50.872;4.386;2022-12-18T09:28:58;4.17;;;3.43;;
14472;SDS011;7322;50.872;4.386;2022-12-18T09:31:26;3.80;;;3.30;;
14472;SDS011;7322;50.872;4.386;2022-12-18T09:33:57;3.33;;;3.03;;
14472;SDS011;7322;50.872;4.386;2022-12-18T09:36:25;4.27;;;3.40;;
14472;SDS011;7322;50.872;4.386;2022-12-18T09:38:52;6.20;;;3.37;;
14472;SDS011;7322;50.872;4.386;2022-12-18T09:41:30;4.27;;;3.23;;
14472;SDS011;7322;50.872;4.386;2022-12-18T09:44:09;3.73;;;3.33;;
14472;SDS011;7322;50.872;4.386;2022-12-18T09:46:58;4.07;;;3.53;;
14472;SDS011;7322;50.872;4.386;2022-12-18T09:49:42;3.40;;;3.10;;
14472;SDS011;7322;50.872;4.386;2022-12-18T09:52:28;5.00;;;3.27;;
14472;SDS011;7322;50.872;4.386;2022-12-18T09:55:00;3.40;;;3.10;;
14472;SDS011;7322;50.872;4.386;2022-12-18T10:00:28;3.70;;;3.30;;
14472;SDS011;7322;50.872;4.386;2022-12-18T10:03:03;4.33;;;3.17;;
14472;SDS011;7322;50.872;4.386;2022-12-18T10:05:52;4.53;;;3.30;;
14472;SDS011;7322;50.872;4.386;2022-12-18T10:14:08;3.50;;;3.20;;
14472;SDS011;7322;50.872;4.386;2022-12-18T10:19:49;3.87;;;3.53;;
14472;SDS011;7322;50.872;4.386;2022-12-18T10:22:30;3.90;;;3.03;;
14472;SDS011;7322;50.872;4.386;2022-12-18T10:25:16;3.63;;;3.30;;
14472;SDS011;7322;50.872;4.386;2022-12-18T10:27:57;4.10;;;3.10;;
14472;SDS011;7322;50.872;4.386;2022-12-18T10:30:30;3.83;;;3.40;;
14472;SDS011;7322;50.872;4.386;2022-12-18T10:33:05;3.47;;;3.07;;
14472;SDS011;7322;50.872;4.386;2022-12-18T10:35:43;4.63;;;3.30;;
14472;SDS011;7322;50.872;4.386;2022-12-18T10:38:24;3.50;;;3.13;;
14472;SDS011;7322;50.872;4.386;2022-12-18T10:41:04;5.27;;;3.20;;
14472;SDS011;7322;50.872;4.386;2022-12-18T10:43:42;4.23;;;3.17;;
14472;SDS011;7322;50.872;4.386;2022-12-18T10:46:23;4.20;;;3.67;;
14472;SDS011;7322;50.872;4.386;2022-12-18T10:49:00;4.17;;;2.83;;
14472;SDS011;7322;50.872;4.386;2022-12-18T10:51:39;5.40;;;3.50;;
14472;SDS011;7322;50.872;4.386;2022-12-18T10:54:13;4.63;;;3.20;;
14472;SDS011;7322;50.872;4.386;2022-12-18T10:56:47;5.40;;;3.70;;
14472;SDS011;7322;50.872;4.386;2022-12-18T10:59:17;4.07;;;3.13;;
14472;SDS011;7322;50.872;4.386;2022-12-18T11:04:54;3.60;;;3.00;;
14472;SDS011;7322;50.872;4.386;2022-12-18T11:07:21;5.37;;;3.30;;
14472;SDS011;7322;50.872;4.386;2022-12-18T11:15:14;3.47;;;2.70;;
14472;SDS011;7322;50.872;4.386;2022-12-18T11:17:47;4.53;;;3.20;;
14472;SDS011;7322;50.872;4.386;2022-12-18T11:20:30;4.37;;;2.87;;
14472;SDS011;7322;50.872;4.386;2022-12-18T11:26:06;3.93;;;2.90;;
14472;SDS011;7322;50.872;4.386;2022-12-18T11:28:36;3.60;;;3.00;;
14472;SDS011;7322;50.872;4.386;2022-12-18T11:39:44;3.60;;;3.30;;
14472;SDS011;7322;50.872;4.386;2022-12-18T11:42:18;3.13;;;2.90;;
14472;SDS011;7322;50.872;4.386;2022-12-18T11:44:49;5.97;;;3.20;;
14472;SDS011;7322;50.872;4.386;2022-12-18T11:47:23;3.10;;;2.80;;
14472;SDS011;7322;50.872;4.386;2022-12-18T11:50:13;4.07;;;3.17;;
14472;SDS011;7322;50.872;4.386;2022-12-18T11:58:38;3.23;;;2.93;;
14472;SDS011;7322;50.872;4.386;2022-12-18T12:01:21;4.67;;;3.20;;
14472;SDS011;7322;50.872;4.386;2022-12-18T12:04:12;3.47;;;2.90;;
14472;SDS011;7322;50.872;4.386;2022-12-18T12:13:22;4.50;;;3.20;;
14472;SDS011;7322;50.872;4.386;2022-12-18T12:16:15;4.40;;;3.10;;
14472;SDS011;7322;50.872;4.386;2022-12-18T12:19:06;3.57;;;3.03;;
14472;SDS011;7322;50.872;4.386;2022-12-18T12:22:00;3.60;;;2.97;;
14472;SDS011;7322;50.872;4.386;2022-12-18T12:25:01;3.70;;;2.93;;
14472;SDS011;7322;50.872;4.386;2022-12-18T12:27:53;4.07;;;3.20;;
14472;SDS011;7322;50.872;4.386;2022-12-18T12:30:30;3.97;;;3.10;;
14472;SDS011;7322;50.872;4.386;2022-12-18T12:41:44;4.37;;;3.30;;
14472;SDS011;7322;50.872;4.386;2022-12-18T12:44:38;3.90;;;3.27;;
14472;SDS011;7322;50.872;4.386;2022-12-18T12:47:11;3.77;;;2.97;;
14472;SDS011;7322;50.872;4.386;2022-12-18T12:55:26;3.20;;;2.90;;
14472;SDS011;7322;50.872;4.386;2022-12-18T12:57:57;3.97;;;2.87;;
14472;SDS011;7322;50.872;4.386;2022-12-18T13:00:35;3.23;;;2.93;;
14472;SDS011;7322;50.872;4.386;2022-12-18T13:03:09;3.43;;;3.00;;
14472;SDS011;7322;50.872;4.386;2022-12-18T13:05:45;4.03;;;3.03;;
14472;SDS011;7322;50.872;4.386;2022-12-18T13:08:22;3.53;;;3.07;;
14472;SDS011;7322;50.872;4.386;2022-12-18T13:11:04;4.27;;;3.13;;
14472;SDS011;7322;50.872;4.386;2022-12-18T13:14:20;3.30;;;2.93;;
14472;SDS011;7322;50.872;4.386;2022-12-18T13:20:03;3.40;;;2.90;;
14472;SDS011;7322;50.872;4.386;2022-12-18T13:28:09;3.17;;;2.87;;
14472;SDS011;7322;50.872;4.386;2022-12-18T13:36:38;3.27;;;2.90;;
14472;SDS011;7322;50.872;4.386;2022-12-18T13:45:37;3.13;;;2.60;;
14472;SDS011;7322;50.872;4.386;2022-12-18T13:48:20;3.17;;;2.80;;
14472;SDS011;7322;50.872;4.386;2022-12-18T14:02:57;3.17;;;2.77;;
14472;SDS011;7322;50.872;4.386;2022-12-18T14:08:32;4.70;;;3.33;;
14472;SDS011;7322;50.872;4.386;2022-12-18T14:11:19;3.30;;;2.97;;
14472;SDS011;7322;50.872;4.386;2022-12-18T14:16:37;3.50;;;3.20;;
14472;SDS011;7322;50.872;4.386;2022-12-18T14:19:08;3.73;;;3.33;;
14472;SDS011;7322;50.872;4.386;2022-12-18T14:24:22;3.73;;;3.33;;
14472;SDS011;7322;50.872;4.386;2022-12-18T14:26:54;3.37;;;2.97;;
14472;SDS011;7322;50.872;4.386;2022-12-18T14:29:40;3.60;;;3.13;;
14472;SDS011;7322;50.872;4.386;2022-12-18T14:35:17;3.47;;;2.93;;
14472;SDS011;7322;50.872;4.386;2022-12-18T14:41:04;3.67;;;3.17;;
14472;SDS011;7322;50.872;4.386;2022-12-18T14:49:29;3.77;;;3.37;;
14472;SDS011;7322;50.872;4.386;2022-12-18T14:55:03;3.63;;;3.20;;
14472;SDS011;7322;50.872;4.386;2022-12-18T15:01:01;4.00;;;3.60;;
14472;SDS011;7322;50.872;4.386;2022-12-18T15:09:22;4.53;;;3.37;;
14472;SDS011;7322;50.872;4.386;2022-12-18T15:17:35;4.00;;;3.60;;
14472;SDS011;7322;50.872;4.386;2022-12-18T15:22:44;4.37;;;3.97;;
14472;SDS011;7322;50.872;4.386;2022-12-18T15:25:24;5.07;;;3.60;;
14472;SDS011;7322;50.872;4.386;2022-12-18T15:28:17;3.30;;;3.00;;
14472;SDS011;7322;50.872;4.386;2022-12-18T15:31:04;4.60;;;3.97;;
14472;SDS011;7322;50.872;4.386;2022-12-18T15:34:10;3.73;;;3.37;;
14472;SDS011;7322;50.872;4.386;2022-12-18T15:36:41;3.80;;;3.13;;
14472;SDS011;7322;50.872;4.386;2022-12-18T15:39:10;3.90;;;3.10;;
14472;SDS011;7322;50.872;4.386;2022-12-18T15:41:46;3.80;;;3.40;;
14472;SDS011;7322;50.872;4.386;2022-12-18T15:44:30;4.17;;;3.60;;
14472;SDS011;7322;50.872;4.386;2022-12-18T15:52:38;3.70;;;3.27;;
14472;SDS011;7322;50.872;4.386;2022-12-18T15:55:17;3.60;;;3.30;;
14472;SDS011;7322;50.872;4.386;2022-12-18T15:58:15;4.27;;;3.50;;
14472;SDS011;7322;50.872;4.386;2022-12-18T16:00:48;4.37;;;3.27;;
14472;SDS011;7322;50.872;4.386;2022-12-18T16:03:16;4.20;;;3.73;;
14472;SDS011;7322;50.872;4.386;2022-12-18T16:08:15;4.17;;;3.77;;
14472;SDS011;7322;50.872;4.386;2022-12-18T16:10:45;5.30;;;3.47;;
14472;SDS011;7322;50.872;4.386;2022-12-18T16:13:30;3.90;;;3.50;;
14472;SDS011;7322;50.872;4.386;2022-12-18T16:16:13;4.53;;;3.70;;
14472;SDS011;7322;50.872;4.386;2022-12-18T16:18:48;4.27;;;3.50;;
14472;SDS011;7322;50.872;4.386;2022-12-18T16:21:28;3.97;;;3.30;;
14472;SDS011;7322;50.872;4.386;2022-12-18T16:24:02;3.47;;;3.17;;
14472;SDS011;7322;50.872;4.386;2022-12-18T16:26:39;4.17;;;3.77;;
14472;SDS011;7322;50.872;4.386;2022-12-18T16:29:10;4.70;;;3.80;;
14472;SDS011;7322;50.872;4.386;2022-12-18T16:39:56;4.07;;;3.67;;
14472;SDS011;7322;50.872;4.386;2022-12-18T16:42:31;4.33;;;3.67;;
14472;SDS011;7322;50.872;4.386;2022-12-18T16:45:00;4.23;;;3.50;;
14472;SDS011;7322;50.872;4.386;2022-12-18T16:50:39;4.83;;;3.70;;
14472;SDS011;7322;50.872;4.386;2022-12-18T16:53:19;4.00;;;3.30;;
14472;SDS011;7322;50.872;4.386;2022-12-18T16:55:53;3.97;;;3.53;;
14472;SDS011;7322;50.872;4.386;2022-12-18T17:04:48;4.83;;;3.93;;
14472;SDS011;7322;50.872;4.386;2022-12-18T17:10:24;3.87;;;3.47;;
14472;SDS011;7322;50.872;4.386;2022-12-18T17:15:50;4.00;;;3.57;;
14472;SDS011;7322;50.872;4.386;2022-12-18T17:21:09;4.03;;;3.50;;
14472;SDS011;7322;50.872;4.386;2022-12-18T17:23:38;3.80;;;3.43;;
14472;SDS011;7322;50.872;4.386;2022-12-18T17:28:59;3.80;;;3.40;;
14472;SDS011;7322;50.872;4.386;2022-12-18T17:34:35;4.03;;;3.63;;
14472;SDS011;7322;50.872;4.386;2022-12-18T17:37:14;4.00;;;3.60;;
14472;SDS011;7322;50.872;4.386;2022-12-18T17:42:31;4.20;;;3.43;;
14472;SDS011;7322;50.872;4.386;2022-12-18T17:44:59;3.60;;;3.30;;
14472;SDS011;7322;50.872;4.386;2022-12-18T17:47:32;3.93;;;3.53;;
14472;SDS011;7322;50.872;4.386;2022-12-18T17:55:27;4.17;;;3.43;;
14472;SDS011;7322;50.872;4.386;2022-12-18T17:57:56;4.90;;;3.63;;
14472;SDS011;7322;50.872;4.386;2022-12-18T18:02:59;4.17;;;3.77;;
14472;SDS011;7322;50.872;4.386;2022-12-18T18:08:32;4.20;;;3.70;;
14472;SDS011;7322;50.872;4.386;2022-12-18T18:11:07;3.97;;;3.57;;
14472;SDS011;7322;50.872;4.386;2022-12-18T18:13:53;4.43;;;3.60;;
14472;SDS011;7322;50.872;4.386;2022-12-18T18:16:31;3.83;;;3.40;;
14472;SDS011;7322;50.872;4.386;2022-12-18T18:19:16;4.77;;;4.00;;
14472;SDS011;7322;50.872;4.386;2022-12-18T18:24:30;4.03;;;3.60;;
14472;SDS011;7322;50.872;4.386;2022-12-18T18:27:00;4.33;;;3.60;;
14472;SDS011;7322;50.872;4.386;2022-12-18T18:34:54;4.33;;;3.60;;
14472;SDS011;7322;50.872;4.386;2022-12-18T18:37:36;3.70;;;3.30;;
14472;SDS011;7322;50.872;4.386;2022-12-18T18:40:10;4.03;;;3.67;;
14472;SDS011;7322;50.872;4.386;2022-12-18T18:42:43;4.00;;;3.60;;
14472;SDS011;7322;50.872;4.386;2022-12-18T18:45:14;4.00;;;3.50;;
14472;SDS011;7322;50.872;4.386;2022-12-18T18:47:41;3.63;;;3.30;;
14472;SDS011;7322;50.872;4.386;2022-12-18T18:52:40;3.77;;;3.33;;
14472;SDS011;7322;50.872;4.386;2022-12-18T18:55:17;4.33;;;3.63;;
14472;SDS011;7322;50.872;4.386;2022-12-18T18:57:46;4.67;;;3.47;;
14472;SDS011;7322;50.872;4.386;2022-12-18T19:00:13;3.67;;;3.03;;
14472;SDS011;7322;50.872;4.386;2022-12-18T19:02:55;4.10;;;3.53;;
14472;SDS011;7322;50.872;4.386;2022-12-18T19:05:30;3.97;;;3.57;;
14472;SDS011;7322;50.872;4.386;2022-12-18T19:08:06;4.00;;;3.40;;
14472;SDS011;7322;50.872;4.386;2022-12-18T19:13:32;4.10;;;3.30;;
14472;SDS011;7322;50.872;4.386;2022-12-18T19:16:01;4.27;;;3.87;;
14472;SDS011;7322;50.872;4.386;2022-12-18T19:18:31;3.83;;;3.47;;
14472;SDS011;7322;50.872;4.386;2022-12-18T19:21:05;3.70;;;3.27;;
14472;SDS011;7322;50.872;4.386;2022-12-18T19:23:32;3.67;;;3.37;;
14472;SDS011;7322;50.872;4.386;2022-12-18T19:26:12;3.77;;;3.37;;
14472;SDS011;7322;50.872;4.386;2022-12-18T19:28:43;4.27;;;3.77;;
14472;SDS011;7322;50.872;4.386;2022-12-18T19:31:23;3.70;;;3.33;;
14472;SDS011;7322;50.872;4.386;2022-12-18T19:36:46;4.23;;;3.50;;
14472;SDS011;7322;50.872;4.386;2022-12-18T19:39:19;3.70;;;3.33;;
14472;SDS011;7322;50.872;4.386;2022-12-18T19:41:55;3.50;;;3.20;;
14472;SDS011;7322;50.872;4.386;2022-12-18T19:44:22;3.67;;;3.37;;
14472;SDS011;7322;50.872;4.386;2022-12-18T19:49:49;4.00;;;3.60;;
14472;SDS011;7322;50.872;4.386;2022-12-18T19:52:23;3.57;;;3.27;;
14472;SDS011;7322;50.872;4.386;2022-12-18T19:54:52;3.40;;;3.10;;
14472;SDS011;7322;50.872;4.386;2022-12-18T20:00:10;3.50;;;3.13;;
14472;SDS011;7322;50.872;4.386;2022-12-18T20:02:38;4.30;;;3.70;;
14472;SDS011;7322;50.872;4.386;2022-12-18T20:05:06;3.73;;;3.43;;
14472;SDS011;7322;50.872;4.386;2022-12-18T20:07:44;3.43;;;3.13;;
14472;SDS011;7322;50.872;4.386;2022-12-18T20:13:16;3.63;;;3.33;;
14472;SDS011;7322;50.872;4.386;2022-12-18T20:15:59;3.90;;;3.50;;
14472;SDS011;7322;50.872;4.386;2022-12-18T20:18:27;3.60;;;3.30;;
14472;SDS011;7322;50.872;4.386;2022-12-18T20:38:25;3.70;;;3.40;;
14472;SDS011;7322;50.872;4.386;2022-12-18T20:47:27;3.57;;;3.20;;
14472;SDS011;7322;50.872;4.386;2022-12-18T21:01:40;3.40;;;3.10;;
14472;SDS011;7322;50.872;4.386;2022-12-18T21:09:26;3.53;;;3.23;;
14472;SDS011;7322;50.872;4.386;2022-12-18T21:17:57;3.50;;;3.20;;
14472;SDS011;7322;50.872;4.386;2022-12-18T21:20:31;3.33;;;3.03;;
14472;SDS011;7322;50.872;4.386;2022-12-18T21:23:09;3.63;;;3.30;;
14472;SDS011;7322;50.872;4.386;2022-12-18T21:38:33;3.67;;;3.30;;
14472;SDS011;7322;50.872;4.386;2022-12-18T21:44:26;3.23;;;2.93;;
14472;SDS011;7322;50.872;4.386;2022-12-18T21:47:01;3.60;;;3.20;;
14472;SDS011;7322;50.872;4.386;2022-12-18T21:49:30;3.50;;;3.13;;
14472;SDS011;7322;50.872;4.386;2022-12-18T21:57:30;3.33;;;3.03;;
14472;SDS011;7322;50.872;4.386;2022-12-18T21:59:57;3.33;;;3.03;;
14472;SDS011;7322;50.872;4.386;2022-12-18T22:02:40;3.87;;;3.50;;
14472;SDS011;7322;50.872;4.386;2022-12-18T22:08:04;4.43;;;3.47;;
14472;SDS011;7322;50.872;4.386;2022-12-18T22:10:34;3.87;;;3.40;;
14472;SDS011;7322;50.872;4.386;2022-12-18T22:13:03;3.40;;;3.10;;
14472;SDS011;7322;50.872;4.386;2022-12-18T22:21:49;3.03;;;2.73;;
14472;SDS011;7322;50.872;4.386;2022-12-18T22:27:18;3.60;;;3.30;;
14472;SDS011;7322;50.872;4.386;2022-12-18T22:29:56;3.30;;;3.00;;
14472;SDS011;7322;50.872;4.386;2022-12-18T22:32:29;3.80;;;3.07;;
14472;SDS011;7322;50.872;4.386;2022-12-18T22:34:59;4.10;;;3.63;;
14472;SDS011;7322;50.872;4.386;2022-12-18T22:37:28;3.83;;;3.27;;
14472;SDS011;7322;50.872;4.386;2022-12-18T22:40:10;3.57;;;3.27;;
14472;SDS011;7322;50.872;4.386;2022-12-18T22:42:46;3.60;;;3.10;;
14472;SDS011;7322;50.872;4.386;2022-12-18T22:47:59;3.10;;;2.80;;
14472;SDS011;7322;50.872;4.386;2022-12-18T22:50:33;3.53;;;3.07;;
14472;SDS011;7322;50.872;4.386;2022-12-18T22:56:23;3.60;;;3.07;;
14472;SDS011;7322;50.872;4.386;2022-12-18T23:02:05;3.53;;;3.03;;